sensor_id;sensor_type;location;lat;lon;timestamp;P1;durP1;ratioP1;P2;durP2;ratioP2
40044;SDS011;25735;48.122;11.422;2022-07-04T00:00:17;8.27;;;2.95;;
40044;SDS011;25735;48.122;11.422;2022-07-04T00:02:44;4.45;;;3.05;;
40044;SDS011;25735;48.122;11.422;2022-07-04T00:05:11;3.95;;;3.10;;
40044;SDS011;25735;48.122;11.422;2022-07-04T00:07:37;4.20;;;3.67;;
40044;SDS011;25735;48.122;11.422;2022-07-04T00:10:04;3.10;;;2.80;;
40044;SDS011;25735;48.122;11.422;2022-07-04T00:12:30;5.90;;;3.55;;
40044;SDS011;25735;48.122;11.422;2022-07-04T00:14:55;3.40;;;3.15;;
40044;SDS011;25735;48.122;11.422;2022-07-04T00:17:20;3.50;;;2.95;;
40044;SDS011;25735;48.122;11.422;2022-07-04T00:19:46;4.35;;;3.72;;
40044;SDS011;25735;48.122;11.422;2022-07-04T00:22:11;5.15;;;2.83;;
40044;SDS011;25735;48.122;11.422;2022-07-04T00:24:36;3.40;;;2.63;;
40044;SDS011;25735;48.122;11.422;2022-07-04T00:27:02;4.57;;;2.70;;
40044;SDS011;25735;48.122;11.422;2022-07-04T00:29:27;4.10;;;2.78;;
40044;SDS011;25735;48.122;11.422;2022-07-04T00:31:52;3.08;;;2.78;;
40044;SDS011;25735;48.122;11.422;2022-07-04T00:34:18;3.10;;;2.85;;
40044;SDS011;25735;48.122;11.422;2022-07-04T00:36:43;5.40;;;2.97;;
40044;SDS011;25735;48.122;11.422;2022-07-04T00:39:09;2.55;;;2.35;;
40044;SDS011;25735;48.122;11.422;2022-07-04T00:41:34;2.88;;;2.67;;
40044;SDS011;25735;48.122;11.422;2022-07-04T00:44:00;4.50;;;3.00;;
40044;SDS011;25735;48.122;11.422;2022-07-04T00:46:28;3.40;;;3.10;;
40044;SDS011;25735;48.122;11.422;2022-07-04T00:48:53;2.67;;;2.47;;
40044;SDS011;25735;48.122;11.422;2022-07-04T00:51:18;3.05;;;2.63;;
40044;SDS011;25735;48.122;11.422;2022-07-04T00:53:44;2.88;;;2.65;;
40044;SDS011;25735;48.122;11.422;2022-07-04T00:56:10;4.45;;;2.67;;
40044;SDS011;25735;48.122;11.422;2022-07-04T00:58:35;3.72;;;2.28;;
40044;SDS011;25735;48.122;11.422;2022-07-04T01:01:02;3.70;;;2.55;;
40044;SDS011;25735;48.122;11.422;2022-07-04T01:03:27;2.83;;;2.58;;
40044;SDS011;25735;48.122;11.422;2022-07-04T01:05:52;3.53;;;2.58;;
40044;SDS011;25735;48.122;11.422;2022-07-04T01:08:18;2.88;;;2.13;;
40044;SDS011;25735;48.122;11.422;2022-07-04T01:10:43;3.03;;;2.53;;
40044;SDS011;25735;48.122;11.422;2022-07-04T01:13:14;3.65;;;2.35;;
40044;SDS011;25735;48.122;11.422;2022-07-04T01:15:44;4.47;;;2.15;;
40044;SDS011;25735;48.122;11.422;2022-07-04T01:18:09;2.45;;;1.95;;
40044;SDS011;25735;48.122;11.422;2022-07-04T01:20:35;2.92;;;2.30;;
40044;SDS011;25735;48.122;11.422;2022-07-04T01:23:01;2.00;;;1.90;;
40044;SDS011;25735;48.122;11.422;2022-07-04T01:25:26;2.70;;;2.45;;
40044;SDS011;25735;48.122;11.422;2022-07-04T01:27:52;2.78;;;2.35;;
40044;SDS011;25735;48.122;11.422;2022-07-04T01:30:17;2.80;;;2.22;;
40044;SDS011;25735;48.122;11.422;2022-07-04T01:32:42;2.13;;;1.92;;
40044;SDS011;25735;48.122;11.422;2022-07-04T01:35:07;2.20;;;2.00;;
40044;SDS011;25735;48.122;11.422;2022-07-04T01:37:35;2.15;;;1.70;;
40044;SDS011;25735;48.122;11.422;2022-07-04T01:40:01;2.55;;;2.35;;
40044;SDS011;25735;48.122;11.422;2022-07-04T01:42:26;2.17;;;1.90;;
40044;SDS011;25735;48.122;11.422;2022-07-04T01:44:51;2.65;;;1.80;;
40044;SDS011;25735;48.122;11.422;2022-07-04T01:47:16;2.45;;;1.90;;
40044;SDS011;25735;48.122;11.422;2022-07-04T01:49:41;2.30;;;1.67;;
40044;SDS011;25735;48.122;11.422;2022-07-04T01:52:07;2.33;;;1.75;;
40044;SDS011;25735;48.122;11.422;2022-07-04T01:54:32;1.85;;;1.70;;
40044;SDS011;25735;48.122;11.422;2022-07-04T01:56:57;1.88;;;1.67;;
40044;SDS011;25735;48.122;11.422;2022-07-04T01:59:22;1.92;;;1.83;;
40044;SDS011;25735;48.122;11.422;2022-07-04T02:02:08;4.93;;;2.13;;
40044;SDS011;25735;48.122;11.422;2022-07-04T02:04:33;3.83;;;2.38;;
40044;SDS011;25735;48.122;11.422;2022-07-04T02:06:59;1.95;;;1.75;;
40044;SDS011;25735;48.122;11.422;2022-07-04T02:09:24;2.95;;;1.90;;
40044;SDS011;25735;48.122;11.422;2022-07-04T02:11:50;2.72;;;1.90;;
40044;SDS011;25735;48.122;11.422;2022-07-04T02:14:33;6.53;;;1.90;;
40044;SDS011;25735;48.122;11.422;2022-07-04T02:16:59;2.88;;;2.65;;
40044;SDS011;25735;48.122;11.422;2022-07-04T02:19:25;3.35;;;2.72;;
40044;SDS011;25735;48.122;11.422;2022-07-04T02:21:50;3.97;;;2.20;;
40044;SDS011;25735;48.122;11.422;2022-07-04T02:24:16;2.00;;;1.90;;
40044;SDS011;25735;48.122;11.422;2022-07-04T02:26:42;2.53;;;2.05;;
40044;SDS011;25735;48.122;11.422;2022-07-04T02:29:07;5.97;;;2.03;;
40044;SDS011;25735;48.122;11.422;2022-07-04T02:31:32;2.58;;;1.98;;
40044;SDS011;25735;48.122;11.422;2022-07-04T02:33:57;1.95;;;1.80;;
40044;SDS011;25735;48.122;11.422;2022-07-04T02:36:23;1.88;;;1.75;;
40044;SDS011;25735;48.122;11.422;2022-07-04T02:38:48;2.58;;;2.13;;
40044;SDS011;25735;48.122;11.422;2022-07-04T02:41:13;2.83;;;2.28;;
40044;SDS011;25735;48.122;11.422;2022-07-04T02:43:38;2.67;;;2.40;;
40044;SDS011;25735;48.122;11.422;2022-07-04T02:46:04;3.33;;;2.33;;
40044;SDS011;25735;48.122;11.422;2022-07-04T02:48:29;2.28;;;2.08;;
40044;SDS011;25735;48.122;11.422;2022-07-04T02:50:54;2.53;;;2.33;;
40044;SDS011;25735;48.122;11.422;2022-07-04T02:53:19;3.13;;;2.63;;
40044;SDS011;25735;48.122;11.422;2022-07-04T02:55:44;2.95;;;2.08;;
40044;SDS011;25735;48.122;11.422;2022-07-04T02:58:10;2.67;;;2.47;;
40044;SDS011;25735;48.122;11.422;2022-07-04T03:00:35;2.78;;;2.58;;
40044;SDS011;25735;48.122;11.422;2022-07-04T03:03:00;5.45;;;2.13;;
40044;SDS011;25735;48.122;11.422;2022-07-04T03:05:26;2.35;;;2.15;;
40044;SDS011;25735;48.122;11.422;2022-07-04T03:07:56;2.13;;;1.92;;
40044;SDS011;25735;48.122;11.422;2022-07-04T03:10:22;3.75;;;2.42;;
40044;SDS011;25735;48.122;11.422;2022-07-04T03:12:47;4.15;;;2.50;;
40044;SDS011;25735;48.122;11.422;2022-07-04T03:15:12;2.70;;;2.38;;
40044;SDS011;25735;48.122;11.422;2022-07-04T03:17:38;2.55;;;2.33;;
40044;SDS011;25735;48.122;11.422;2022-07-04T03:20:03;5.03;;;3.05;;
40044;SDS011;25735;48.122;11.422;2022-07-04T03:22:28;3.15;;;2.30;;
40044;SDS011;25735;48.122;11.422;2022-07-04T03:24:54;2.42;;;2.15;;
40044;SDS011;25735;48.122;11.422;2022-07-04T03:27:19;2.50;;;2.30;;
40044;SDS011;25735;48.122;11.422;2022-07-04T03:29:45;2.45;;;2.25;;
40044;SDS011;25735;48.122;11.422;2022-07-04T03:32:10;2.53;;;1.90;;
40044;SDS011;25735;48.122;11.422;2022-07-04T03:34:35;2.35;;;2.15;;
40044;SDS011;25735;48.122;11.422;2022-07-04T03:37:00;2.97;;;2.30;;
40044;SDS011;25735;48.122;11.422;2022-07-04T03:39:26;2.53;;;2.30;;
40044;SDS011;25735;48.122;11.422;2022-07-04T03:41:51;2.47;;;2.08;;
40044;SDS011;25735;48.122;11.422;2022-07-04T03:44:16;2.15;;;1.92;;
40044;SDS011;25735;48.122;11.422;2022-07-04T03:46:41;2.60;;;2.40;;
40044;SDS011;25735;48.122;11.422;2022-07-04T03:49:07;2.40;;;2.20;;
40044;SDS011;25735;48.122;11.422;2022-07-04T03:51:32;2.45;;;2.17;;
40044;SDS011;25735;48.122;11.422;2022-07-04T03:53:57;2.17;;;1.98;;
40044;SDS011;25735;48.122;11.422;2022-07-04T03:56:22;2.53;;;2.28;;
40044;SDS011;25735;48.122;11.422;2022-07-04T03:58:48;2.60;;;2.40;;
40044;SDS011;25735;48.122;11.422;2022-07-04T04:01:14;2.78;;;2.15;;
40044;SDS011;25735;48.122;11.422;2022-07-04T04:03:41;2.55;;;2.10;;
40044;SDS011;25735;48.122;11.422;2022-07-04T04:06:25;3.00;;;1.92;;
40044;SDS011;25735;48.122;11.422;2022-07-04T04:08:50;3.55;;;1.88;;
40044;SDS011;25735;48.122;11.422;2022-07-04T04:11:15;2.80;;;2.17;;
40044;SDS011;25735;48.122;11.422;2022-07-04T04:13:41;3.95;;;1.98;;
40044;SDS011;25735;48.122;11.422;2022-07-04T04:16:06;2.72;;;2.03;;
40044;SDS011;25735;48.122;11.422;2022-07-04T04:18:31;2.33;;;2.00;;
40044;SDS011;25735;48.122;11.422;2022-07-04T04:20:57;2.85;;;2.65;;
40044;SDS011;25735;48.122;11.422;2022-07-04T04:23:22;2.40;;;2.20;;
40044;SDS011;25735;48.122;11.422;2022-07-04T04:25:47;2.00;;;1.90;;
40044;SDS011;25735;48.122;11.422;2022-07-04T04:28:12;2.25;;;2.03;;
40044;SDS011;25735;48.122;11.422;2022-07-04T04:30:38;3.42;;;2.22;;
40044;SDS011;25735;48.122;11.422;2022-07-04T04:33:03;3.63;;;2.78;;
40044;SDS011;25735;48.122;11.422;2022-07-04T04:35:28;4.35;;;2.65;;
40044;SDS011;25735;48.122;11.422;2022-07-04T04:37:53;2.75;;;2.25;;
40044;SDS011;25735;48.122;11.422;2022-07-04T04:40:18;2.30;;;2.10;;
40044;SDS011;25735;48.122;11.422;2022-07-04T04:42:44;3.05;;;2.33;;
40044;SDS011;25735;48.122;11.422;2022-07-04T04:45:09;3.42;;;2.40;;
40044;SDS011;25735;48.122;11.422;2022-07-04T04:47:35;2.75;;;2.15;;
40044;SDS011;25735;48.122;11.422;2022-07-04T04:50:00;4.18;;;2.30;;
40044;SDS011;25735;48.122;11.422;2022-07-04T04:52:26;4.80;;;2.25;;
40044;SDS011;25735;48.122;11.422;2022-07-04T04:54:51;3.88;;;2.03;;
40044;SDS011;25735;48.122;11.422;2022-07-04T04:57:17;3.38;;;2.50;;
40044;SDS011;25735;48.122;11.422;2022-07-04T04:59:42;2.95;;;2.38;;
40044;SDS011;25735;48.122;11.422;2022-07-04T05:02:07;2.72;;;2.53;;
40044;SDS011;25735;48.122;11.422;2022-07-04T05:04:33;2.83;;;2.55;;
40044;SDS011;25735;48.122;11.422;2022-07-04T05:06:58;2.63;;;2.42;;
40044;SDS011;25735;48.122;11.422;2022-07-04T05:09:23;3.30;;;2.22;;
40044;SDS011;25735;48.122;11.422;2022-07-04T05:11:49;2.33;;;2.13;;
40044;SDS011;25735;48.122;11.422;2022-07-04T05:14:14;3.70;;;2.05;;
40044;SDS011;25735;48.122;11.422;2022-07-04T05:16:40;2.92;;;2.67;;
40044;SDS011;25735;48.122;11.422;2022-07-04T05:19:05;2.72;;;2.40;;
40044;SDS011;25735;48.122;11.422;2022-07-04T05:21:31;2.33;;;2.15;;
40044;SDS011;25735;48.122;11.422;2022-07-04T05:23:56;4.50;;;2.50;;
40044;SDS011;25735;48.122;11.422;2022-07-04T05:26:22;5.20;;;2.35;;
40044;SDS011;25735;48.122;11.422;2022-07-04T05:28:47;2.63;;;2.40;;
40044;SDS011;25735;48.122;11.422;2022-07-04T05:31:13;2.60;;;2.20;;
40044;SDS011;25735;48.122;11.422;2022-07-04T05:33:38;2.90;;;2.17;;
40044;SDS011;25735;48.122;11.422;2022-07-04T05:36:03;2.42;;;1.90;;
40044;SDS011;25735;48.122;11.422;2022-07-04T05:38:29;3.63;;;2.30;;
40044;SDS011;25735;48.122;11.422;2022-07-04T05:40:54;2.22;;;2.05;;
40044;SDS011;25735;48.122;11.422;2022-07-04T05:43:19;2.05;;;1.70;;
40044;SDS011;25735;48.122;11.422;2022-07-04T05:45:46;1.92;;;1.73;;
40044;SDS011;25735;48.122;11.422;2022-07-04T05:48:13;5.25;;;2.60;;
40044;SDS011;25735;48.122;11.422;2022-07-04T05:50:38;2.92;;;2.00;;
40044;SDS011;25735;48.122;11.422;2022-07-04T05:53:03;2.13;;;1.88;;
40044;SDS011;25735;48.122;11.422;2022-07-04T05:55:29;1.95;;;1.83;;
40044;SDS011;25735;48.122;11.422;2022-07-04T05:57:54;2.28;;;2.05;;
40044;SDS011;25735;48.122;11.422;2022-07-04T06:00:19;4.28;;;2.40;;
40044;SDS011;25735;48.122;11.422;2022-07-04T06:02:45;2.78;;;1.92;;
40044;SDS011;25735;48.122;11.422;2022-07-04T06:05:10;2.20;;;2.00;;
40044;SDS011;25735;48.122;11.422;2022-07-04T06:07:35;3.05;;;2.10;;
40044;SDS011;25735;48.122;11.422;2022-07-04T06:10:02;2.65;;;2.00;;
40044;SDS011;25735;48.122;11.422;2022-07-04T06:12:28;3.03;;;2.45;;
40044;SDS011;25735;48.122;11.422;2022-07-04T06:14:53;2.40;;;2.00;;
40044;SDS011;25735;48.122;11.422;2022-07-04T06:17:18;1.95;;;1.73;;
40044;SDS011;25735;48.122;11.422;2022-07-04T06:19:44;3.65;;;1.85;;
40044;SDS011;25735;48.122;11.422;2022-07-04T06:22:10;2.05;;;1.63;;
40044;SDS011;25735;48.122;11.422;2022-07-04T06:24:35;3.40;;;2.08;;
40044;SDS011;25735;48.122;11.422;2022-07-04T06:27:00;2.45;;;2.10;;
40044;SDS011;25735;48.122;11.422;2022-07-04T06:29:28;2.47;;;1.70;;
40044;SDS011;25735;48.122;11.422;2022-07-04T06:31:53;2.78;;;1.70;;
40044;SDS011;25735;48.122;11.422;2022-07-04T06:34:18;1.98;;;1.85;;
40044;SDS011;25735;48.122;11.422;2022-07-04T06:37:02;2.00;;;1.60;;
40044;SDS011;25735;48.122;11.422;2022-07-04T06:39:28;2.08;;;1.60;;
40044;SDS011;25735;48.122;11.422;2022-07-04T06:41:53;3.25;;;1.77;;
40044;SDS011;25735;48.122;11.422;2022-07-04T06:44:18;5.65;;;1.92;;
40044;SDS011;25735;48.122;11.422;2022-07-04T06:46:44;2.00;;;1.80;;
40044;SDS011;25735;48.122;11.422;2022-07-04T06:49:10;2.30;;;1.85;;
40044;SDS011;25735;48.122;11.422;2022-07-04T06:51:36;3.53;;;1.65;;
40044;SDS011;25735;48.122;11.422;2022-07-04T06:54:01;3.40;;;2.13;;
40044;SDS011;25735;48.122;11.422;2022-07-04T06:56:26;3.97;;;1.90;;
40044;SDS011;25735;48.122;11.422;2022-07-04T06:58:52;1.80;;;1.40;;
40044;SDS011;25735;48.122;11.422;2022-07-04T07:01:17;1.70;;;1.60;;
40044;SDS011;25735;48.122;11.422;2022-07-04T07:03:42;3.28;;;1.90;;
40044;SDS011;25735;48.122;11.422;2022-07-04T07:06:08;4.35;;;2.55;;
40044;SDS011;25735;48.122;11.422;2022-07-04T07:08:33;2.60;;;1.92;;
40044;SDS011;25735;48.122;11.422;2022-07-04T07:10:58;2.35;;;1.88;;
40044;SDS011;25735;48.122;11.422;2022-07-04T07:13:37;2.13;;;1.92;;
40044;SDS011;25735;48.122;11.422;2022-07-04T07:16:10;2.17;;;1.90;;
40044;SDS011;25735;48.122;11.422;2022-07-04T07:18:35;3.60;;;2.00;;
40044;SDS011;25735;48.122;11.422;2022-07-04T07:21:01;2.20;;;1.95;;
40044;SDS011;25735;48.122;11.422;2022-07-04T07:23:26;2.08;;;1.83;;
40044;SDS011;25735;48.122;11.422;2022-07-04T07:25:51;2.65;;;2.28;;
40044;SDS011;25735;48.122;11.422;2022-07-04T07:28:17;2.63;;;2.30;;
40044;SDS011;25735;48.122;11.422;2022-07-04T07:30:43;2.40;;;1.90;;
40044;SDS011;25735;48.122;11.422;2022-07-04T07:33:08;2.33;;;1.80;;
40044;SDS011;25735;48.122;11.422;2022-07-04T07:35:34;2.22;;;1.90;;
40044;SDS011;25735;48.122;11.422;2022-07-04T07:37:59;2.25;;;1.90;;
40044;SDS011;25735;48.122;11.422;2022-07-04T07:40:24;5.20;;;1.88;;
40044;SDS011;25735;48.122;11.422;2022-07-04T07:42:50;2.55;;;1.88;;
40044;SDS011;25735;48.122;11.422;2022-07-04T07:45:15;2.55;;;1.77;;
40044;SDS011;25735;48.122;11.422;2022-07-04T07:47:40;2.53;;;2.15;;
40044;SDS011;25735;48.122;11.422;2022-07-04T07:50:05;1.98;;;1.58;;
40044;SDS011;25735;48.122;11.422;2022-07-04T07:52:32;4.72;;;2.10;;
40044;SDS011;25735;48.122;11.422;2022-07-04T07:54:57;3.50;;;1.58;;
40044;SDS011;25735;48.122;11.422;2022-07-04T07:57:23;2.03;;;1.83;;
40044;SDS011;25735;48.122;11.422;2022-07-04T07:59:48;2.38;;;1.48;;
40044;SDS011;25735;48.122;11.422;2022-07-04T08:02:13;2.80;;;1.85;;
40044;SDS011;25735;48.122;11.422;2022-07-04T08:04:38;1.50;;;1.40;;
40044;SDS011;25735;48.122;11.422;2022-07-04T08:07:06;3.13;;;1.75;;
40044;SDS011;25735;48.122;11.422;2022-07-04T08:09:36;2.40;;;1.60;;
40044;SDS011;25735;48.122;11.422;2022-07-04T08:12:03;2.03;;;1.40;;
40044;SDS011;25735;48.122;11.422;2022-07-04T08:14:30;1.50;;;1.40;;
40044;SDS011;25735;48.122;11.422;2022-07-04T08:16:56;1.85;;;1.60;;
40044;SDS011;25735;48.122;11.422;2022-07-04T08:19:23;2.67;;;1.48;;
40044;SDS011;25735;48.122;11.422;2022-07-04T08:21:49;2.10;;;1.45;;
40044;SDS011;25735;48.122;11.422;2022-07-04T08:24:15;3.67;;;1.40;;
40044;SDS011;25735;48.122;11.422;2022-07-04T08:26:41;1.50;;;1.17;;
40044;SDS011;25735;48.122;11.422;2022-07-04T08:29:07;1.85;;;1.50;;
40044;SDS011;25735;48.122;11.422;2022-07-04T08:31:33;2.53;;;1.42;;
40044;SDS011;25735;48.122;11.422;2022-07-04T08:33:58;1.20;;;1.08;;
40044;SDS011;25735;48.122;11.422;2022-07-04T08:36:23;1.58;;;1.00;;
40044;SDS011;25735;48.122;11.422;2022-07-04T08:38:49;1.20;;;1.10;;
40044;SDS011;25735;48.122;11.422;2022-07-04T08:41:15;1.52;;;1.20;;
40044;SDS011;25735;48.122;11.422;2022-07-04T08:43:41;1.75;;;1.40;;
40044;SDS011;25735;48.122;11.422;2022-07-04T08:46:07;1.80;;;1.20;;
40044;SDS011;25735;48.122;11.422;2022-07-04T08:48:34;1.73;;;1.55;;
40044;SDS011;25735;48.122;11.422;2022-07-04T08:51:10;1.98;;;1.00;;
40044;SDS011;25735;48.122;11.422;2022-07-04T08:53:39;1.55;;;1.25;;
40044;SDS011;25735;48.122;11.422;2022-07-04T08:56:47;3.33;;;1.65;;
40044;SDS011;25735;48.122;11.422;2022-07-04T08:59:31;1.60;;;1.30;;
40044;SDS011;25735;48.122;11.422;2022-07-04T09:01:57;2.45;;;1.80;;
40044;SDS011;25735;48.122;11.422;2022-07-04T09:04:22;1.27;;;1.13;;
40044;SDS011;25735;48.122;11.422;2022-07-04T09:06:48;0.98;;;0.93;;
40044;SDS011;25735;48.122;11.422;2022-07-04T09:09:14;1.45;;;1.20;;
40044;SDS011;25735;48.122;11.422;2022-07-04T09:11:39;2.17;;;1.05;;
40044;SDS011;25735;48.122;11.422;2022-07-04T09:14:05;2.10;;;1.88;;
40044;SDS011;25735;48.122;11.422;2022-07-04T09:16:30;1.45;;;1.10;;
40044;SDS011;25735;48.122;11.422;2022-07-04T09:18:55;1.30;;;1.20;;
40044;SDS011;25735;48.122;11.422;2022-07-04T09:21:21;1.55;;;1.10;;
40044;SDS011;25735;48.122;11.422;2022-07-04T09:24:06;2.15;;;1.25;;
40044;SDS011;25735;48.122;11.422;2022-07-04T09:26:32;2.83;;;1.00;;
40044;SDS011;25735;48.122;11.422;2022-07-04T09:28:57;1.63;;;1.50;;
40044;SDS011;25735;48.122;11.422;2022-07-04T09:31:23;1.02;;;0.90;;
40044;SDS011;25735;48.122;11.422;2022-07-04T09:33:54;3.53;;;1.50;;
40044;SDS011;25735;48.122;11.422;2022-07-04T09:36:24;1.75;;;1.48;;
40044;SDS011;25735;48.122;11.422;2022-07-04T09:41:56;1.88;;;1.33;;
40044;SDS011;25735;48.122;11.422;2022-07-04T09:44:24;1.10;;;1.00;;
40044;SDS011;25735;48.122;11.422;2022-07-04T09:46:51;1.33;;;1.00;;
40044;SDS011;25735;48.122;11.422;2022-07-04T09:49:17;2.58;;;1.10;;
40044;SDS011;25735;48.122;11.422;2022-07-04T09:51:44;1.50;;;1.00;;
40044;SDS011;25735;48.122;11.422;2022-07-04T09:54:18;1.02;;;0.90;;
40044;SDS011;25735;48.122;11.422;2022-07-04T09:56:53;3.15;;;1.30;;
40044;SDS011;25735;48.122;11.422;2022-07-04T09:59:21;1.40;;;1.30;;
40044;SDS011;25735;48.122;11.422;2022-07-04T10:01:47;1.20;;;1.00;;
40044;SDS011;25735;48.122;11.422;2022-07-04T10:04:13;1.40;;;1.10;;
40044;SDS011;25735;48.122;11.422;2022-07-04T10:06:40;1.75;;;0.90;;
40044;SDS011;25735;48.122;11.422;2022-07-04T10:09:10;1.48;;;0.77;;
40044;SDS011;25735;48.122;11.422;2022-07-04T10:11:36;2.47;;;1.17;;
40044;SDS011;25735;48.122;11.422;2022-07-04T10:14:03;2.05;;;1.30;;
40044;SDS011;25735;48.122;11.422;2022-07-04T10:16:33;3.67;;;1.27;;
40044;SDS011;25735;48.122;11.422;2022-07-04T10:18:59;1.70;;;1.00;;
40044;SDS011;25735;48.122;11.422;2022-07-04T10:21:24;0.80;;;0.80;;
40044;SDS011;25735;48.122;11.422;2022-07-04T10:23:50;3.22;;;1.40;;
40044;SDS011;25735;48.122;11.422;2022-07-04T10:26:19;2.15;;;1.20;;
40044;SDS011;25735;48.122;11.422;2022-07-04T10:28:45;3.03;;;0.90;;
40044;SDS011;25735;48.122;11.422;2022-07-04T10:31:12;1.05;;;0.95;;
40044;SDS011;25735;48.122;11.422;2022-07-04T10:33:39;3.35;;;1.30;;
40044;SDS011;25735;48.122;11.422;2022-07-04T10:38:52;3.20;;;1.50;;
40044;SDS011;25735;48.122;11.422;2022-07-04T10:41:18;1.02;;;1.00;;
40044;SDS011;25735;48.122;11.422;2022-07-04T10:49:00;1.80;;;1.20;;
40044;SDS011;25735;48.122;11.422;2022-07-04T10:54:20;1.08;;;0.93;;
40044;SDS011;25735;48.122;11.422;2022-07-04T10:56:54;2.35;;;0.90;;
40044;SDS011;25735;48.122;11.422;2022-07-04T10:59:29;1.33;;;1.20;;
40044;SDS011;25735;48.122;11.422;2022-07-04T11:08:06;1.40;;;1.00;;
40044;SDS011;25735;48.122;11.422;2022-07-04T11:15:19;1.48;;;0.93;;
40044;SDS011;25735;48.122;11.422;2022-07-04T11:18:06;2.35;;;1.48;;
40044;SDS011;25735;48.122;11.422;2022-07-04T11:20:33;1.67;;;1.10;;
40044;SDS011;25735;48.122;11.422;2022-07-04T11:23:07;1.00;;;1.00;;
40044;SDS011;25735;48.122;11.422;2022-07-04T11:25:34;1.27;;;1.13;;
40044;SDS011;25735;48.122;11.422;2022-07-04T11:30:48;2.70;;;1.10;;
40044;SDS011;25735;48.122;11.422;2022-07-04T11:33:26;2.13;;;1.17;;
40044;SDS011;25735;48.122;11.422;2022-07-04T11:41:09;3.67;;;1.45;;
40044;SDS011;25735;48.122;11.422;2022-07-04T11:43:53;1.42;;;1.05;;
40044;SDS011;25735;48.122;11.422;2022-07-04T11:46:37;1.38;;;1.00;;
40044;SDS011;25735;48.122;11.422;2022-07-04T11:49:09;1.03;;;0.90;;
40044;SDS011;25735;48.122;11.422;2022-07-04T11:51:40;1.15;;;1.00;;
40044;SDS011;25735;48.122;11.422;2022-07-04T11:54:06;1.50;;;1.33;;
40044;SDS011;25735;48.122;11.422;2022-07-04T11:56:32;2.42;;;1.15;;
40044;SDS011;25735;48.122;11.422;2022-07-04T11:58:57;3.67;;;1.13;;
40044;SDS011;25735;48.122;11.422;2022-07-04T12:01:35;3.53;;;1.20;;
40044;SDS011;25735;48.122;11.422;2022-07-04T12:04:19;2.28;;;1.55;;
40044;SDS011;25735;48.122;11.422;2022-07-04T12:06:45;1.60;;;1.30;;
40044;SDS011;25735;48.122;11.422;2022-07-04T12:09:12;2.40;;;1.48;;
40044;SDS011;25735;48.122;11.422;2022-07-04T12:11:50;3.00;;;1.15;;
40044;SDS011;25735;48.122;11.422;2022-07-04T12:14:16;1.55;;;1.10;;
40044;SDS011;25735;48.122;11.422;2022-07-04T12:16:41;2.90;;;1.52;;
40044;SDS011;25735;48.122;11.422;2022-07-04T12:19:09;1.75;;;1.02;;
40044;SDS011;25735;48.122;11.422;2022-07-04T12:21:35;1.55;;;1.02;;
40044;SDS011;25735;48.122;11.422;2022-07-04T12:24:01;1.60;;;1.00;;
40044;SDS011;25735;48.122;11.422;2022-07-04T12:26:30;1.33;;;1.10;;
40044;SDS011;25735;48.122;11.422;2022-07-04T12:28:59;2.55;;;1.20;;
40044;SDS011;25735;48.122;11.422;2022-07-04T12:31:37;1.20;;;0.93;;
40044;SDS011;25735;48.122;11.422;2022-07-04T12:34:04;1.25;;;1.08;;
40044;SDS011;25735;48.122;11.422;2022-07-04T12:36:49;1.40;;;0.80;;
40044;SDS011;25735;48.122;11.422;2022-07-04T12:39:31;1.17;;;0.90;;
40044;SDS011;25735;48.122;11.422;2022-07-04T12:42:07;1.00;;;1.00;;
40044;SDS011;25735;48.122;11.422;2022-07-04T12:44:35;4.57;;;1.55;;
40044;SDS011;25735;48.122;11.422;2022-07-04T12:47:01;1.60;;;1.13;;
40044;SDS011;25735;48.122;11.422;2022-07-04T12:49:28;1.15;;;1.10;;
40044;SDS011;25735;48.122;11.422;2022-07-04T12:52:03;1.35;;;0.93;;
40044;SDS011;25735;48.122;11.422;2022-07-04T12:54:29;1.25;;;1.08;;
40044;SDS011;25735;48.122;11.422;2022-07-04T12:57:02;1.07;;;0.97;;
40044;SDS011;25735;48.122;11.422;2022-07-04T12:59:29;1.40;;;0.90;;
40044;SDS011;25735;48.122;11.422;2022-07-04T13:01:55;1.07;;;1.00;;
40044;SDS011;25735;48.122;11.422;2022-07-04T13:04:20;1.93;;;1.27;;
40044;SDS011;25735;48.122;11.422;2022-07-04T13:06:45;1.00;;;0.90;;
40044;SDS011;25735;48.122;11.422;2022-07-04T13:09:11;1.92;;;1.00;;
40044;SDS011;25735;48.122;11.422;2022-07-04T13:11:37;2.72;;;1.15;;
40044;SDS011;25735;48.122;11.422;2022-07-04T13:14:21;1.73;;;0.80;;
40044;SDS011;25735;48.122;11.422;2022-07-04T13:16:47;1.90;;;1.02;;
40044;SDS011;25735;48.122;11.422;2022-07-04T13:19:12;0.80;;;0.80;;
40044;SDS011;25735;48.122;11.422;2022-07-04T13:21:37;1.33;;;1.10;;
40044;SDS011;25735;48.122;11.422;2022-07-04T13:24:03;1.10;;;0.80;;
40044;SDS011;25735;48.122;11.422;2022-07-04T13:26:28;1.70;;;1.02;;
40044;SDS011;25735;48.122;11.422;2022-07-04T13:28:55;1.65;;;1.00;;
40044;SDS011;25735;48.122;11.422;2022-07-04T13:31:21;1.30;;;1.20;;
40044;SDS011;25735;48.122;11.422;2022-07-04T13:33:46;2.00;;;0.90;;
40044;SDS011;25735;48.122;11.422;2022-07-04T13:36:11;1.33;;;0.90;;
40044;SDS011;25735;48.122;11.422;2022-07-04T13:38:38;1.88;;;0.90;;
40044;SDS011;25735;48.122;11.422;2022-07-04T13:41:03;1.97;;;1.27;;
40044;SDS011;25735;48.122;11.422;2022-07-04T13:43:29;0.98;;;0.98;;
40044;SDS011;25735;48.122;11.422;2022-07-04T13:45:55;1.48;;;0.98;;
40044;SDS011;25735;48.122;11.422;2022-07-04T13:48:21;1.60;;;1.00;;
40044;SDS011;25735;48.122;11.422;2022-07-04T13:50:46;1.33;;;1.20;;
40044;SDS011;25735;48.122;11.422;2022-07-04T13:53:11;2.47;;;1.10;;
40044;SDS011;25735;48.122;11.422;2022-07-04T13:55:37;3.80;;;1.23;;
40044;SDS011;25735;48.122;11.422;2022-07-04T13:58:03;1.00;;;1.00;;
40044;SDS011;25735;48.122;11.422;2022-07-04T14:00:29;3.30;;;1.65;;
40044;SDS011;25735;48.122;11.422;2022-07-04T14:02:55;1.27;;;1.17;;
40044;SDS011;25735;48.122;11.422;2022-07-04T14:05:20;2.80;;;1.10;;
40044;SDS011;25735;48.122;11.422;2022-07-04T14:07:46;1.05;;;1.05;;
40044;SDS011;25735;48.122;11.422;2022-07-04T14:10:12;0.98;;;0.98;;
40044;SDS011;25735;48.122;11.422;2022-07-04T14:12:37;2.05;;;1.00;;
40044;SDS011;25735;48.122;11.422;2022-07-04T14:15:02;1.77;;;1.40;;
40044;SDS011;25735;48.122;11.422;2022-07-04T14:17:28;2.53;;;1.25;;
40044;SDS011;25735;48.122;11.422;2022-07-04T14:19:54;3.13;;;1.08;;
40044;SDS011;25735;48.122;11.422;2022-07-04T14:22:19;0.90;;;0.90;;
40044;SDS011;25735;48.122;11.422;2022-07-04T14:24:44;2.63;;;1.10;;
40044;SDS011;25735;48.122;11.422;2022-07-04T14:27:10;3.13;;;1.35;;
40044;SDS011;25735;48.122;11.422;2022-07-04T14:29:35;1.40;;;1.30;;
40044;SDS011;25735;48.122;11.422;2022-07-04T14:32:00;2.47;;;1.13;;
40044;SDS011;25735;48.122;11.422;2022-07-04T14:34:25;2.63;;;1.50;;
40044;SDS011;25735;48.122;11.422;2022-07-04T14:36:51;2.13;;;1.30;;
40044;SDS011;25735;48.122;11.422;2022-07-04T14:39:16;1.75;;;1.23;;
40044;SDS011;25735;48.122;11.422;2022-07-04T14:41:41;3.75;;;1.10;;
40044;SDS011;25735;48.122;11.422;2022-07-04T14:44:07;1.98;;;1.02;;
40044;SDS011;25735;48.122;11.422;2022-07-04T14:46:32;1.17;;;1.00;;
40044;SDS011;25735;48.122;11.422;2022-07-04T14:48:57;1.40;;;1.30;;
40044;SDS011;25735;48.122;11.422;2022-07-04T14:51:23;1.20;;;1.10;;
40044;SDS011;25735;48.122;11.422;2022-07-04T14:53:49;1.35;;;0.98;;
40044;SDS011;25735;48.122;11.422;2022-07-04T14:56:15;2.13;;;1.33;;
40044;SDS011;25735;48.122;11.422;2022-07-04T14:58:40;1.63;;;1.17;;
40044;SDS011;25735;48.122;11.422;2022-07-04T15:01:05;2.87;;;1.40;;
40044;SDS011;25735;48.122;11.422;2022-07-04T15:03:31;2.60;;;1.08;;